Time;durP1;ratioP1;P1;durP2;ratioP2;P2;SDS_P1;SDS_P2;PMS_P1;PMS_P2;Temp;Humidity;BMP_temperature;BMP_pressure;BME280_temperature;BME280_humidity;BME280_pressure;Samples;Min_cycle;Max_cycle;Signal;HPM_P1;HPM_P2
2023/12/24 00:00:18;;;;;;;5.78;1.13;;;;;;;8.72;100.00;100375.66;7399098;19;19939;-80
2023/12/24 00:02:48;;;;;;;5.90;1.45;;;;;;;8.72;100.00;100375.66;7396188;19;19952;-80
2023/12/24 00:05:17;;;;;;;7.72;1.83;;;;;;;8.70;100.00;100380.38;7397620;19;19955;-79
2023/12/24 00:07:46;;;;;;;5.97;1.42;;;;;;;8.72;100.00;100377.50;7399092;19;19993;-79
2023/12/24 00:10:15;;;;;;;5.20;1.30;;;;;;;8.72;100.00;100366.75;7400992;19;19919;-79
2023/12/24 00:12:43;;;;;;;6.65;1.75;;;;;;;8.73;100.00;100366.56;7399179;19;19940;-80
2023/12/24 00:15:13;;;;;;;4.88;1.30;;;;;;;8.71;100.00;100365.94;7395903;19;19919;-80
2023/12/24 00:17:45;;;;;;;9.68;1.63;;;;;;;8.72;100.00;100351.47;7397490;19;19922;-80
2023/12/24 00:20:16;;;;;;;3.95;1.30;;;;;;;8.73;100.00;100355.00;7395542;19;19982;-79
2023/12/24 00:22:46;;;;;;;7.40;1.98;;;;;;;8.73;100.00;100379.16;7396515;19;20440;-80
2023/12/24 00:25:14;;;;;;;4.78;1.30;;;;;;;8.72;100.00;100362.22;7395732;19;19925;-80
2023/12/24 00:27:43;;;;;;;15.68;1.98;;;;;;;8.71;100.00;100370.47;7395087;19;19933;-79
2023/12/24 00:30:33;;;;;;;5.78;1.45;;;;;;;8.71;100.00;100371.31;7393312;19;20252;-80
2023/12/24 00:33:07;;;;;;;5.40;1.55;;;;;;;8.67;100.00;100367.31;7396315;19;19934;-79
2023/12/24 00:35:36;;;;;;;4.10;1.35;;;;;;;8.74;100.00;100356.69;7396157;19;19922;-80
2023/12/24 00:38:05;;;;;;;6.53;1.63;;;;;;;8.75;100.00;100366.41;7395389;19;19918;-80
2023/12/24 00:40:34;;;;;;;8.00;1.75;;;;;;;8.76;100.00;100349.28;7393587;19;19934;-79
2023/12/24 00:43:03;;;;;;;6.20;1.60;;;;;;;8.78;100.00;100356.16;7395276;19;19922;-79
2023/12/24 00:45:32;;;;;;;10.60;2.88;;;;;;;8.79;100.00;100349.78;7395202;19;19919;-79
2023/12/24 00:48:01;;;;;;;3.38;1.20;;;;;;;8.80;100.00;100346.03;7395327;19;19918;-80
2023/12/24 00:50:53;;;;;;;7.80;1.90;;;;;;;8.80;100.00;100353.28;7393468;19;19922;-80
2023/12/24 00:53:21;;;;;;;3.92;1.20;;;;;;;8.79;100.00;100333.66;7395304;19;19936;-80
2023/12/24 00:55:50;;;;;;;8.68;1.42;;;;;;;8.80;100.00;100350.59;7394548;19;19933;-80
2023/12/24 00:58:19;;;;;;;5.93;1.88;;;;;;;8.80;100.00;100334.50;7393160;19;19918;-79
2023/12/24 01:00:48;;;;;;;4.65;1.50;;;;;;;8.78;100.00;100334.66;7394333;19;19954;-80
2023/12/24 01:03:18;;;;;;;6.15;1.77;;;;;;;8.76;100.00;100328.63;7394906;19;19976;-79
2023/12/24 01:05:47;;;;;;;6.80;1.98;;;;;;;8.74;100.00;100352.16;7395297;19;19922;-79
2023/12/24 01:08:18;;;;;;;10.75;1.83;;;;;;;8.76;100.00;100331.31;7394063;19;19990;-80
2023/12/24 01:10:47;;;;;;;6.82;1.70;;;;;;;8.72;100.00;100335.38;7394922;19;19926;-80
2023/12/24 01:13:18;;;;;;;10.05;1.58;;;;;;;8.71;100.00;100325.66;7393296;19;20067;-79
2023/12/24 01:15:48;;;;;;;8.52;1.30;;;;;;;8.71;100.00;100325.66;7394691;19;19927;-79
2023/12/24 01:18:17;;;;;;;8.45;1.63;;;;;;;8.71;100.00;100328.34;7394783;19;20575;-79
2023/12/24 01:20:47;;;;;;;8.23;1.60;;;;;;;8.73;100.00;100317.41;7395096;19;20319;-79
2023/12/24 01:23:22;;;;;;;6.18;1.45;;;;;;;8.69;100.00;100325.00;7397231;19;19914;-79
2023/12/24 01:25:52;;;;;;;5.75;1.60;;;;;;;8.73;100.00;100320.94;7399467;19;20605;-78
2023/12/24 01:28:21;;;;;;;6.93;1.23;;;;;;;8.73;100.00;100312.88;7402414;19;20351;-79
2023/12/24 01:31:09;;;;;;;9.20;1.60;;;;;;;8.73;100.00;100317.41;7392642;19;19929;-79
2023/12/24 01:33:58;;;;;;;6.93;1.40;;;;;;;8.73;100.00;100320.94;7393235;19;19952;-79
2023/12/24 01:36:27;;;;;;;9.30;1.63;;;;;;;8.73;100.00;100314.72;7393964;19;20333;-79
2023/12/24 01:38:59;;;;;;;3.08;1.10;;;;;;;8.76;100.00;100314.38;7393583;19;20308;-79
2023/12/24 01:41:28;;;;;;;4.07;1.23;;;;;;;8.74;100.00;100316.41;7393554;19;20022;-79
2023/12/24 01:43:57;;;;;;;4.90;1.63;;;;;;;8.72;100.00;100295.09;7394030;19;19974;-79
2023/12/24 01:46:26;;;;;;;5.78;1.55;;;;;;;8.73;100.00;100322.78;7391601;19;19925;-79
2023/12/24 01:49:17;;;;;;;4.03;1.05;;;;;;;8.72;100.00;100303.13;7392040;19;19915;-79
2023/12/24 01:51:47;;;;;;;6.50;1.45;;;;;;;8.74;100.00;100338.72;7394505;19;19928;-79
2023/12/24 01:54:19;;;;;;;9.32;1.70;;;;;;;8.73;100.00;100315.56;7394182;19;19925;-79
2023/12/24 01:56:49;;;;;;;4.25;1.50;;;;;;;8.73;100.00;100302.13;7394577;19;19994;-79
2023/12/24 01:59:19;;;;;;;7.35;1.40;;;;;;;8.74;100.00;100308.34;7395001;19;19915;-79
2023/12/24 02:01:49;;;;;;;4.82;1.25;;;;;;;8.72;100.00;100286.19;7394917;19;19918;-79
2023/12/24 02:04:18;;;;;;;5.05;1.33;;;;;;;8.73;100.00;100285.19;7394153;19;19921;-79
2023/12/24 02:06:48;;;;;;;6.82;1.42;;;;;;;8.71;100.00;100287.22;7392995;19;19926;-79
2023/12/24 02:09:20;;;;;;;2.80;1.20;;;;;;;8.72;100.00;100294.25;7393929;19;19939;-79
2023/12/24 02:11:50;;;;;;;8.75;1.55;;;;;;;8.72;100.00;100283.50;7399715;19;19907;-79
2023/12/24 02:14:19;;;;;;;2.97;0.90;;;;;;;8.71;100.00;100293.44;7400663;19;19935;-79
2023/12/24 02:16:50;;;;;;;6.60;0.90;;;;;;;8.70;100.00;100285.53;7397870;19;20356;-79
2023/12/24 02:19:20;;;;;;;6.97;0.82;;;;;;;8.69;100.00;100295.44;7400737;19;19915;-79
2023/12/24 02:21:53;;;;;;;4.35;1.08;;;;;;;8.67;100.00;100275.16;7401162;19;19960;-79
2023/12/24 02:24:23;;;;;;;3.97;1.02;;;;;;;8.68;100.00;100299.13;7400023;19;19923;-79
2023/12/24 02:27:00;;;;;;;4.82;0.90;;;;;;;8.70;100.00;100259.53;7407042;19;19970;-79
2023/12/24 02:29:35;;;;;;;4.38;0.82;;;;;;;8.68;100.00;100269.59;7406921;19;19919;-79
2023/12/24 02:32:09;;;;;;;8.05;0.90;;;;;;;8.69;100.00;100263.22;7407473;19;19929;-79
2023/12/24 02:34:51;;;;;;;4.10;0.98;;;;;;;8.71;100.00;100263.06;7407076;19;19974;-80
2023/12/24 02:37:23;;;;;;;1.95;0.90;;;;;;;8.72;100.00;100270.91;7407939;19;19949;-80
2023/12/24 02:39:52;;;;;;;3.03;0.88;;;;;;;8.71;100.00;100255.84;7409833;19;19910;-79
2023/12/24 02:42:22;;;;;;;2.20;0.60;;;;;;;8.71;100.00;100242.41;7412099;19;19939;-79
2023/12/24 02:44:51;;;;;;;1.75;0.40;;;;;;;8.74;100.00;100265.38;7402825;19;19925;-79
2023/12/24 02:47:20;;;;;;;3.15;0.80;;;;;;;8.84;100.00;100244.50;7404763;19;19935;-79
2023/12/24 02:49:49;;;;;;;2.33;0.88;;;;;;;8.85;100.00;100249.66;7404361;19;19922;-80
2023/12/24 02:52:17;;;;;;;1.10;0.60;;;;;;;8.86;100.00;100237.06;7404067;19;19970;-80
2023/12/24 02:54:49;;;;;;;2.33;0.70;;;;;;;8.84;100.00;100226.53;7404409;19;19926;-79
2023/12/24 02:57:38;;;;;;;3.38;0.85;;;;;;;8.86;100.00;100216.41;7401778;19;20298;-80
2023/12/24 03:00:27;;;;;;;2.63;0.80;;;;;;;8.88;100.00;100227.84;7403476;19;19974;-80
2023/12/24 03:02:55;;;;;;;1.67;0.70;;;;;;;8.87;100.00;100253.00;7405676;19;20012;-80
2023/12/24 03:05:24;;;;;;;2.95;0.60;;;;;;;8.90;100.00;100216.88;7405000;19;19931;-80
2023/12/24 03:07:53;;;;;;;2.45;0.70;;;;;;;8.93;100.00;100229.97;7403028;19;20345;-80
2023/12/24 03:10:25;;;;;;;3.25;0.93;;;;;;;8.95;100.00;100239.50;7405321;19;19922;-80
2023/12/24 03:12:54;;;;;;;2.22;0.90;;;;;;;8.95;100.00;100231.44;7404087;19;19915;-80
2023/12/24 03:15:24;;;;;;;2.97;0.85;;;;;;;8.96;100.00;100232.28;7405063;19;20268;-80
2023/12/24 03:17:54;;;;;;;3.63;1.05;;;;;;;8.98;100.00;100230.22;7403357;19;19950;-79
2023/12/24 03:20:23;;;;;;;4.38;1.02;;;;;;;8.99;100.00;100202.34;7403833;19;19915;-79
2023/12/24 03:22:52;;;;;;;4.90;1.10;;;;;;;8.99;100.00;100231.91;7402929;19;19943;-80
2023/12/24 03:25:21;;;;;;;4.57;1.00;;;;;;;9.01;100.00;100233.41;7403916;19;19961;-80
2023/12/24 03:27:52;;;;;;;3.63;1.40;;;;;;;9.02;100.00;100210.88;7403556;19;19914;-79
2023/12/24 03:30:22;;;;;;;3.78;1.05;;;;;;;9.04;100.00;100222.28;7403979;19;19931;-80
2023/12/24 03:32:51;;;;;;;2.25;0.70;;;;;;;9.03;100.00;100207.19;7404152;19;19935;-80
2023/12/24 03:35:19;;;;;;;1.88;0.70;;;;;;;9.03;100.00;100196.44;7403616;19;20476;-79
2023/12/24 03:37:48;;;;;;;2.50;0.80;;;;;;;9.05;100.00;100186.34;7403270;19;20290;-79
2023/12/24 03:40:17;;;;;;;5.28;0.93;;;;;;;9.07;100.00;100202.28;7403615;19;19926;-80
2023/12/24 03:42:46;;;;;;;4.00;1.05;;;;;;;9.02;100.00;100184.00;7403693;19;19966;-80
2023/12/24 03:45:18;;;;;;;1.58;0.52;;;;;;;9.05;100.00;100188.22;7403964;19;19915;-79
2023/12/24 03:47:47;;;;;;;2.42;0.77;;;;;;;9.05;100.00;100194.41;7402468;19;19937;-80
2023/12/24 03:50:17;;;;;;;5.25;0.75;;;;;;;9.06;100.00;100188.00;7401958;19;19930;-79
2023/12/24 03:52:46;;;;;;;1.13;0.63;;;;;;;9.06;100.00;100179.94;7405937;19;19915;-79
2023/12/24 03:55:14;;;;;;;1.33;0.50;;;;;;;9.06;100.00;100179.94;7412840;19;19922;-79
2023/12/24 03:57:43;;;;;;;1.58;0.43;;;;;;;9.06;100.00;100179.13;7404052;19;19947;-80
2023/12/24 04:00:14;;;;;;;1.38;0.55;;;;;;;9.05;100.00;100185.53;7402742;19;20277;-79
2023/12/24 04:02:46;;;;;;;2.40;0.40;;;;;;;9.08;100.00;100193.19;7403674;19;20333;-79
2023/12/24 04:05:16;;;;;;;0.65;0.60;;;;;;;9.11;100.00;100180.22;7401085;19;19939;-79
2023/12/24 04:07:45;;;;;;;1.70;0.50;;;;;;;9.10;100.00;100180.44;7402984;19;19919;-80
2023/12/24 04:10:15;;;;;;;0.68;0.40;;;;;;;9.10;100.00;100170.50;7403790;19;19919;-80
2023/12/24 04:12:44;;;;;;;2.70;0.43;;;;;;;9.11;100.00;100169.47;7402439;19;20264;-79
2023/12/24 04:15:13;;;;;;;1.95;0.60;;;;;;;9.11;100.00;100184.75;7403916;19;20564;-80
2023/12/24 04:17:45;;;;;;;1.20;0.50;;;;;;;9.12;100.00;100170.31;7402387;19;20451;-80
2023/12/24 04:20:14;;;;;;;0.82;0.30;;;;;;;9.13;100.00;100165.78;7402888;19;19941;-80
2023/12/24 04:22:43;;;;;;;0.52;0.30;;;;;;;9.10;100.00;100154.38;7402690;19;20347;-80
2023/12/24 04:25:13;;;;;;;1.50;0.52;;;;;;;9.13;100.00;100163.09;7401684;19;19930;-79
2023/12/24 04:27:42;;;;;;;1.35;0.32;;;;;;;9.13;100.00;100152.34;7403980;19;19911;-79
2023/12/24 04:30:12;;;;;;;0.70;0.35;;;;;;;9.15;100.00;100166.44;7403904;19;20363;-80
2023/12/24 04:32:44;;;;;;;1.23;0.30;;;;;;;9.16;100.00;100135.84;7402676;19;19925;-79
2023/12/24 04:35:13;;;;;;;1.75;0.40;;;;;;;9.16;100.00;100143.91;7403153;19;20391;-79
2023/12/24 04:37:43;;;;;;;0.85;0.35;;;;;;;9.16;100.00;100130.47;7403680;19;19914;-80
2023/12/24 04:40:13;;;;;;;1.20;0.50;;;;;;;9.15;100.00;100147.63;7403544;19;19928;-80
2023/12/24 04:42:42;;;;;;;1.48;0.52;;;;;;;9.17;100.00;100142.91;7405575;19;19914;-79
2023/12/24 04:45:11;;;;;;;2.08;0.32;;;;;;;9.20;100.00;100142.50;7403063;19;19914;-80
2023/12/24 04:47:40;;;;;;;0.85;0.35;;;;;;;9.19;100.00;100162.38;7404758;19;19918;-80
2023/12/24 04:50:13;;;;;;;1.90;0.50;;;;;;;9.20;100.00;100135.28;7405044;19;19977;-80
2023/12/24 04:52:42;;;;;;;2.20;0.60;;;;;;;9.19;100.00;100130.94;7405497;19;19938;-79
2023/12/24 04:55:11;;;;;;;3.28;0.52;;;;;;;9.20;100.00;100143.34;7403061;19;19932;-79
2023/12/24 04:57:40;;;;;;;0.70;0.30;;;;;;;9.20;100.00;100118.31;7403869;19;19930;-79
2023/12/24 05:00:10;;;;;;;0.32;0.30;;;;;;;9.21;100.00;100128.91;7404144;19;20260;-79
2023/12/24 05:02:40;;;;;;;0.52;0.40;;;;;;;9.20;100.00;100137.97;7404517;19;19952;-79
2023/12/24 05:05:12;;;;;;;1.23;0.47;;;;;;;9.23;100.00;100137.63;7407311;19;19945;-79
2023/12/24 05:07:42;;;;;;;3.35;0.70;;;;;;;9.24;100.00;100116.94;7410590;19;19918;-79
2023/12/24 05:10:11;;;;;;;0.88;0.50;;;;;;;9.24;100.00;100125.00;7409942;19;20059;-79
2023/12/24 05:12:50;;;;;;;0.88;0.30;;;;;;;9.26;100.00;100122.97;7401820;19;19946;-79
2023/12/24 05:15:19;;;;;;;0.50;0.20;;;;;;;9.25;100.00;100121.28;7401719;19;19951;-80
2023/12/24 05:17:48;;;;;;;1.75;0.20;;;;;;;9.25;100.00;100121.28;7399944;19;19956;-79
2023/12/24 05:20:20;;;;;;;0.20;0.20;;;;;;;9.25;100.00;100123.97;7402641;19;19946;-79
2023/12/24 05:22:49;;;;;;;1.15;0.40;;;;;;;9.29;100.00;100125.28;7400779;19;19925;-79
2023/12/24 05:25:39;;;;;;;0.50;0.30;;;;;;;9.24;100.00;100116.94;7398723;19;20316;-79
2023/12/24 05:28:08;;;;;;;1.50;0.20;;;;;;;9.26;100.00;100115.75;7400753;19;19939;-79
2023/12/24 05:30:37;;;;;;;0.25;0.20;;;;;;;9.26;100.00;100120.28;7398300;19;19930;-80
2023/12/24 05:33:07;;;;;;;0.30;0.30;;;;;;;9.27;100.00;100130.03;7400660;19;19923;-80
2023/12/24 05:35:40;;;;;;;0.80;0.28;;;;;;;9.27;100.00;100112.03;7400725;19;19923;-79
2023/12/24 05:38:10;;;;;;;1.88;0.30;;;;;;;9.27;100.00;100113.91;7400534;19;20260;-79
2023/12/24 05:40:39;;;;;;;0.30;0.30;;;;;;;9.27;100.00;100114.72;7399737;19;20364;-79
2023/12/24 05:43:09;;;;;;;1.98;0.40;;;;;;;9.24;100.00;100123.16;7400068;19;19923;-79
2023/12/24 05:45:38;;;;;;;1.77;0.28;;;;;;;9.23;100.00;100116.13;7399370;19;19919;-80
2023/12/24 05:48:08;;;;;;;0.73;0.30;;;;;;;9.27;100.00;100111.22;7401269;19;19943;-79
2023/12/24 05:50:41;;;;;;;0.50;0.30;;;;;;;9.30;100.00;100106.28;7399200;19;19919;-80
2023/12/24 05:53:10;;;;;;;0.85;0.35;;;;;;;9.30;100.00;100114.34;7399330;19;20059;-80
2023/12/24 05:55:39;;;;;;;0.65;0.35;;;;;;;9.33;100.00;100105.06;7399421;19;20492;-79
2023/12/24 05:58:08;;;;;;;0.45;0.30;;;;;;;9.31;100.00;100104.44;7398843;19;19949;-80
2023/12/24 06:00:37;;;;;;;0.93;0.30;;;;;;;9.29;100.00;100104.59;7401806;19;20336;-79
2023/12/24 06:03:06;;;;;;;0.93;0.30;;;;;;;9.34;100.00;100109.44;7405382;19;19940;-79
2023/12/24 06:05:35;;;;;;;0.82;0.40;;;;;;;9.34;100.00;100085.22;7405056;19;19923;-79
2023/12/24 06:08:08;;;;;;;0.32;0.30;;;;;;;9.38;100.00;100086.53;7404773;19;19932;-80
2023/12/24 06:10:38;;;;;;;1.48;0.38;;;;;;;9.37;100.00;100076.78;7407397;19;19915;-79
2023/12/24 06:13:07;;;;;;;0.50;0.50;;;;;;;9.40;100.00;100089.88;7409184;19;19918;-80
2023/12/24 06:15:36;;;;;;;1.02;0.47;;;;;;;9.40;100.00;100088.03;7406092;19;19919;-80
2023/12/24 06:18:06;;;;;;;1.63;0.47;;;;;;;9.41;100.00;100086.97;7408125;19;19943;-79
2023/12/24 06:20:37;;;;;;;1.00;0.50;;;;;;;9.45;100.00;100065.91;7407895;19;20259;-80
2023/12/24 06:23:08;;;;;;;0.85;0.60;;;;;;;9.43;100.00;100073.34;7412368;19;19924;-79
2023/12/24 06:25:38;;;;;;;0.70;0.60;;;;;;;9.45;100.00;100085.56;7406436;19;19922;-79
2023/12/24 06:28:07;;;;;;;1.02;0.43;;;;;;;9.49;100.00;100096.81;7405535;19;19922;-79
2023/12/24 06:30:36;;;;;;;1.70;0.50;;;;;;;9.50;100.00;100091.22;7403953;19;19914;-79
2023/12/24 06:33:06;;;;;;;2.58;0.70;;;;;;;9.52;100.00;100089.19;7404715;19;19940;-79
2023/12/24 06:35:54;;;;;;;0.88;0.50;;;;;;;9.54;100.00;100072.84;7402759;19;19978;-80
2023/12/24 06:38:26;;;;;;;1.50;0.55;;;;;;;9.56;100.00;100085.09;7404994;19;19922;-80
2023/12/24 06:40:55;;;;;;;0.68;0.50;;;;;;;9.53;100.00;100084.66;7404306;19;20392;-80
2023/12/24 06:43:24;;;;;;;1.52;0.88;;;;;;;9.59;100.00;100059.69;7404472;19;19919;-80
2023/12/24 06:46:14;;;;;;;2.58;0.90;;;;;;;9.52;100.00;100056.09;7402860;19;19915;-79
2023/12/24 06:48:43;;;;;;;2.40;0.70;;;;;;;9.63;100.00;100065.50;7404016;19;19947;-79
2023/12/24 06:51:12;;;;;;;3.05;0.73;;;;;;;9.58;100.00;100063.38;7402442;19;19978;-79
2023/12/24 06:53:43;;;;;;;3.50;0.90;;;;;;;9.59;100.00;100078.50;7403962;19;19922;-79
2023/12/24 06:56:12;;;;;;;7.72;1.17;;;;;;;9.63;100.00;100057.44;7404448;19;19915;-79
2023/12/24 06:58:41;;;;;;;2.33;1.00;;;;;;;9.66;100.00;100070.53;7404026;19;19918;-79
2023/12/24 07:01:30;;;;;;;5.13;1.38;;;;;;;9.67;100.00;100067.63;7402979;19;20675;-80
2023/12/24 07:04:00;;;;;;;8.38;1.67;;;;;;;9.68;100.00;100063.91;7405493;19;19966;-80
2023/12/24 07:06:29;;;;;;;8.77;1.65;;;;;;;9.70;100.00;100059.19;7404776;19;20246;-80
2023/12/24 07:09:02;;;;;;;5.38;1.10;;;;;;;9.70;100.00;100059.19;7406166;19;19977;-79
2023/12/24 07:11:31;;;;;;;4.88;1.50;;;;;;;9.73;100.00;100052.59;7404206;19;20249;-80
2023/12/24 07:14:00;;;;;;;4.20;1.20;;;;;;;9.73;100.00;100063.34;7406255;19;19923;-80
2023/12/24 07:16:29;;;;;;;6.63;1.50;;;;;;;9.75;100.00;100050.53;7405891;19;20291;-78
2023/12/24 07:18:58;;;;;;;4.13;1.35;;;;;;;9.76;100.00;100042.25;7405938;19;20336;-80
2023/12/24 07:21:28;;;;;;;5.72;1.30;;;;;;;9.77;100.00;100037.72;7406123;19;19974;-79
2023/12/24 07:23:57;;;;;;;10.07;1.95;;;;;;;9.79;100.00;100039.22;7407930;19;19918;-79
2023/12/24 07:26:29;;;;;;;5.60;1.23;;;;;;;9.81;100.00;100033.63;7409894;19;19929;-79
2023/12/24 07:28:58;;;;;;;3.63;1.10;;;;;;;9.81;100.00;100033.63;7407169;19;19927;-79
2023/12/24 07:31:27;;;;;;;6.43;1.30;;;;;;;9.82;100.00;100041.50;7406143;19;20274;-79
2023/12/24 07:33:55;;;;;;;9.00;1.75;;;;;;;9.85;100.00;100034.91;7409453;19;19944;-79
2023/12/24 07:36:24;;;;;;;3.97;1.25;;;;;;;9.84;100.00;100047.50;7410368;19;19929;-80
2023/12/24 07:38:53;;;;;;;2.20;1.40;;;;;;;9.85;100.00;100062.63;7402770;19;19915;-80
2023/12/24 07:41:24;;;;;;;7.78;1.63;;;;;;;9.84;100.00;100066.34;7401481;19;19915;-80
2023/12/24 07:43:55;;;;;;;4.88;1.30;;;;;;;9.88;100.00;100040.72;7403004;19;19986;-79
2023/12/24 07:46:22;;;;;;;10.23;1.50;;;;;;;9.88;100.00;100048.78;7402885;19;19974;-79
2023/12/24 07:48:50;;;;;;;6.43;1.80;;;;;;;9.91;100.00;100052.97;7402349;19;19918;-79
2023/12/24 07:51:20;;;;;;;8.32;1.70;;;;;;;9.92;100.00;100057.34;7403736;19;19938;-79
2023/12/24 07:53:49;;;;;;;8.10;1.77;;;;;;;9.93;100.00;100040.97;7400331;19;19962;-79
2023/12/24 07:56:18;;;;;;;7.53;1.77;;;;;;;9.94;100.00;100063.34;7402866;19;19939;-79
2023/12/24 07:58:47;;;;;;;5.25;1.55;;;;;;;9.93;100.00;100035.59;7402980;19;19939;-79
2023/12/24 08:01:40;;;;;;;3.65;1.50;;;;;;;9.95;100.00;100013.91;7400697;19;20373;-79
2023/12/24 08:04:09;;;;;;;8.30;1.80;;;;;;;9.97;100.00;100036.03;7403116;19;20366;-79
2023/12/24 08:06:38;;;;;;;9.63;1.85;;;;;;;9.98;100.00;100057.38;7401519;19;19990;-78
2023/12/24 08:09:07;;;;;;;8.25;1.90;;;;;;;9.99;100.00;100025.94;7403141;19;19982;-79
2023/12/24 08:11:36;;;;;;;6.35;1.90;;;;;;;9.99;100.00;100056.38;7402895;19;20313;-80
2023/12/24 08:14:04;;;;;;;13.25;2.95;;;;;;;10.00;100.00;100044.59;7403103;19;19918;-79
2023/12/24 08:16:35;;;;;;;8.30;1.73;;;;;;;10.00;100.00;100049.97;7402201;19;19936;-79
2023/12/24 08:19:06;;;;;;;5.38;1.42;;;;;;;10.00;100.00;100025.75;7403426;19;19918;-79
2023/12/24 08:21:35;;;;;;;5.13;1.75;;;;;;;10.05;100.00;100037.78;7403311;19;20364;-80
2023/12/24 08:24:03;;;;;;;11.68;1.90;;;;;;;10.06;100.00;100018.75;7400345;19;19970;-79
2023/12/24 08:26:33;;;;;;;7.18;1.98;;;;;;;10.04;100.00;100034.25;7402979;19;19919;-79
2023/12/24 08:29:01;;;;;;;8.93;1.92;;;;;;;10.10;100.00;100011.94;7403443;19;20308;-80
2023/12/24 08:31:30;;;;;;;9.85;1.70;;;;;;;10.12;100.00;100006.38;7403821;19;19914;-79
2023/12/24 08:33:59;;;;;;;5.07;1.80;;;;;;;10.12;100.00;100023.34;7402242;19;19918;-80
2023/12/24 08:36:30;;;;;;;7.28;1.60;;;;;;;10.12;100.00;100015.28;7404097;19;19922;-79
2023/12/24 08:38:59;;;;;;;4.30;1.67;;;;;;;10.18;100.00;100017.22;7403815;19;19974;-79
2023/12/24 08:41:28;;;;;;;3.70;1.35;;;;;;;10.20;100.00;100033.16;7402508;19;19922;-79
2023/12/24 08:43:57;;;;;;;6.30;1.90;;;;;;;10.20;100.00;100023.25;7405157;19;19919;-79
2023/12/24 08:46:25;;;;;;;4.47;1.17;;;;;;;10.22;100.00;100017.66;7405919;19;19914;-79
2023/12/24 08:48:54;;;;;;;14.60;1.90;;;;;;;10.25;100.00;100011.88;7410229;19;19919;-79
2023/12/24 08:51:22;;;;;;;3.83;1.42;;;;;;;10.27;100.00;100007.13;7401999;19;19914;-79
2023/12/24 08:53:54;;;;;;;4.85;1.38;;;;;;;10.30;100.00;100012.13;7401203;19;19918;-79
2023/12/24 08:56:23;;;;;;;8.88;2.00;;;;;;;10.30;100.00;100012.13;7400974;19;19919;-79
2023/12/24 08:58:53;;;;;;;6.75;1.60;;;;;;;10.32;100.00;100027.06;7401791;19;19924;-80
2023/12/24 09:01:21;;;;;;;8.90;2.17;;;;;;;10.34;100.00;100006.16;7400581;19;19925;-79
2023/12/24 09:03:50;;;;;;;3.85;1.75;;;;;;;10.36;100.00;100008.66;7401267;19;19921;-80
2023/12/24 09:06:22;;;;;;;9.07;2.03;;;;;;;10.37;100.00;100013.84;7400527;19;20412;-79
2023/12/24 09:08:53;;;;;;;;;;;;;;;10.35;100.00;100010.53;7403159;19;19951;-80
2023/12/24 09:11:22;;;;;;;10.98;1.85;;;;;;;10.39;100.00;100016.34;7400760;19;19949;-80
2023/12/24 09:13:56;;;;;;;7.65;1.65;;;;;;;10.39;100.00;100037.88;7401174;19;19975;-80
2023/12/24 09:16:24;;;;;;;10.25;1.90;;;;;;;10.42;100.00;100022.16;7400235;19;19922;-80
2023/12/24 09:18:53;;;;;;;5.88;1.85;;;;;;;10.50;100.00;100026.56;7401421;19;19919;-79
2023/12/24 09:21:22;;;;;;;5.93;1.70;;;;;;;10.46;100.00;100020.75;7400670;19;20306;-80
2023/12/24 09:23:50;;;;;;;5.35;2.00;;;;;;;10.50;100.00;100031.94;7399363;19;19943;-80
2023/12/24 09:26:22;;;;;;;13.63;3.00;;;;;;;10.51;100.00;100020.16;7400045;19;19986;-80
2023/12/24 09:28:51;;;;;;;7.90;1.67;;;;;;;10.51;100.00;100020.16;7399885;19;20455;-79
2023/12/24 09:31:20;;;;;;;8.93;1.65;;;;;;;10.53;100.00;100014.59;7398947;19;19925;-79
2023/12/24 09:33:49;;;;;;;9.35;1.92;;;;;;;10.55;100.00;99999.03;7399164;19;19914;-80
2023/12/24 09:36:18;;;;;;;9.35;2.17;;;;;;;10.56;100.00;100006.94;7400563;19;19919;-80
2023/12/24 09:38:46;;;;;;;6.47;2.03;;;;;;;10.58;100.00;100004.84;7399386;19;19939;-79
2023/12/24 09:41:20;;;;;;;11.93;1.85;;;;;;;10.57;100.00;100003.19;7400335;19;19919;-79
2023/12/24 09:43:51;;;;;;;11.23;1.88;;;;;;;10.58;100.00;99990.56;7399500;19;19933;-80
2023/12/24 09:46:20;;;;;;;10.43;1.98;;;;;;;10.59;100.00;99990.38;7400267;19;20464;-79
2023/12/24 09:48:49;;;;;;;8.07;1.75;;;;;;;10.60;100.00;100007.38;7399212;19;19943;-80
2023/12/24 09:51:18;;;;;;;11.77;1.92;;;;;;;10.60;100.00;100000.13;7399744;19;19930;-79
2023/12/24 09:53:49;;;;;;;6.13;1.80;;;;;;;10.65;100.00;99994.97;7398921;19;19923;-80
2023/12/24 09:56:17;;;;;;;12.55;2.03;;;;;;;10.61;100.00;99988.31;7399907;19;20341;-80
2023/12/24 09:58:50;;;;;;;7.70;1.85;;;;;;;10.65;100.00;99999.53;7400660;19;19919;-79
2023/12/24 10:01:19;;;;;;;25.67;9.82;;;;;;;10.67;100.00;100000.97;7398654;19;19923;-80
2023/12/24 10:03:48;;;;;;;12.85;2.58;;;;;;;10.64;100.00;100001.38;7402498;19;19918;-79
2023/12/24 10:06:17;;;;;;;8.23;2.75;;;;;;;10.66;100.00;99988.53;7400976;19;19911;-79
2023/12/24 10:08:46;;;;;;;5.80;1.80;;;;;;;10.67;100.00;100003.66;7398685;19;19961;-79
2023/12/24 10:11:16;;;;;;;10.55;1.80;;;;;;;10.68;100.00;99994.56;7398698;19;19915;-79
2023/12/24 10:13:46;;;;;;;6.85;2.90;;;;;;;10.69;100.00;99990.84;7398848;19;20377;-79
2023/12/24 10:16:18;;;;;;;6.78;2.30;;;;;;;10.71;100.00;99987.94;7398076;19;19922;-80
2023/12/24 10:18:50;;;;;;;5.07;1.83;;;;;;;10.74;100.00;99972.19;7398610;19;19956;-80
2023/12/24 10:21:40;;;;;;;5.88;1.70;;;;;;;10.75;100.00;99983.81;7397309;19;19919;-82
2023/12/24 10:24:09;;;;;;;7.32;2.17;;;;;;;10.76;100.00;99986.31;7397436;19;19926;-80
2023/12/24 10:26:38;;;;;;;11.65;2.17;;;;;;;10.78;100.00;99978.03;7398470;19;19923;-80
2023/12/24 10:29:07;;;;;;;8.82;2.22;;;;;;;10.76;100.00;99986.31;7398128;19;19926;-81
2023/12/24 10:31:51;;;;;;;8.48;2.25;;;;;;;10.81;100.00;99983.03;7398584;19;19922;-78
2023/12/24 10:34:20;;;;;;;9.60;2.35;;;;;;;10.80;100.00;99984.88;7398525;19;19926;-81
2023/12/24 10:36:51;;;;;;;7.88;2.08;;;;;;;10.82;100.00;99996.31;7397728;19;19943;-82
2023/12/24 10:39:24;;;;;;;10.68;2.30;;;;;;;10.83;100.00;99980.94;7397932;19;19923;-81
2023/12/24 10:41:53;;;;;;;6.82;1.63;;;;;;;10.83;100.00;99987.16;7396989;19;19943;-79
2023/12/24 10:44:26;;;;;;;8.95;2.20;;;;;;;10.86;100.00;99980.56;7397921;19;19927;-81
2023/12/24 10:46:58;;;;;;;7.30;2.10;;;;;;;10.84;100.00;99985.31;7400583;19;19918;-81
2023/12/24 10:49:27;;;;;;;9.43;2.70;;;;;;;10.90;100.00;99974.56;7406248;19;20289;-82
2023/12/24 10:51:58;;;;;;;9.68;2.45;;;;;;;10.93;100.00;99970.63;7402964;19;19943;-81
2023/12/24 10:54:29;;;;;;;11.02;2.13;;;;;;;10.97;100.00;99961.13;7404512;19;19926;-81
2023/12/24 10:57:12;;;;;;;8.05;2.10;;;;;;;10.98;100.00;99953.88;7405311;19;19918;-81
2023/12/24 11:00:06;;;;;;;10.63;2.45;;;;;;;11.02;100.00;99941.66;7403996;19;19947;-81
2023/12/24 11:02:39;;;;;;;8.48;2.80;;;;;;;11.05;100.00;99963.63;7405617;19;19929;-81
2023/12/24 11:05:09;;;;;;;12.27;2.42;;;;;;;11.09;100.00;99948.72;7407283;19;19915;-81
2023/12/24 11:07:53;;;;;;;7.05;2.03;;;;;;;11.14;100.00;99948.09;7407611;19;20369;-81
2023/12/24 11:10:42;;;;;;;8.25;2.25;;;;;;;11.15;100.00;99972.16;7405900;19;19929;-81
2023/12/24 11:13:10;;;;;;;11.32;2.88;;;;;;;11.19;100.00;99942.94;7407765;19;19970;-81
2023/12/24 11:15:44;;;;;;;9.88;2.40;;;;;;;11.25;100.00;99942.13;7406820;19;19922;-81
2023/12/24 11:18:43;;;;;;;8.65;2.05;;;;;;;11.21;100.00;99928.25;7409563;19;19933;-80
2023/12/24 11:21:15;;;;;;;9.40;2.55;;;;;;;11.30;100.00;99926.19;7411415;19;20443;-81
2023/12/24 11:24:06;;;;;;;3.60;1.70;;;;;;;11.27;100.00;99945.44;7403217;19;19915;-81
2023/12/24 11:26:34;;;;;;;12.20;2.38;;;;;;;11.34;100.00;99933.66;7402850;19;19923;-80
2023/12/24 11:29:47;;;;;;;10.43;3.28;;;;;;;11.32;100.00;99951.91;7402461;19;20305;-81
2023/12/24 11:32:40;;;;;;;9.27;2.97;;;;;;;11.33;100.00;99933.84;7403264;19;19923;-79
2023/12/24 11:35:46;;;;;;;4.88;2.90;;;;;;;11.36;100.00;99918.09;7404271;19;20341;-81
2023/12/24 11:38:45;;;;;;;;;;;;;;;11.37;100.00;99930.53;7405422;19;19928;-81
2023/12/24 11:41:15;;;;;;;4.18;1.90;;;;;;;11.43;100.00;99907.31;7401320;19;19922;-81
2023/12/24 11:43:45;;;;;;;7.28;2.40;;;;;;;11.47;100.00;99911.28;7402921;19;19955;-80